sensor_id;sensor_type;location;lat;lon;timestamp;temperature;humidity
670;DHT22;317;48.758;9.302;2022-11-15T00:00:28;8.00;99.90
670;DHT22;317;48.758;9.302;2022-11-15T00:02:55;8.40;99.90
670;DHT22;317;48.758;9.302;2022-11-15T00:05:22;8.60;99.90
670;DHT22;317;48.758;9.302;2022-11-15T00:07:49;8.50;99.90
670;DHT22;317;48.758;9.302;2022-11-15T00:10:17;8.50;99.90
670;DHT22;317;48.758;9.302;2022-11-15T00:12:44;8.50;99.90
670;DHT22;317;48.758;9.302;2022-11-15T00:15:11;8.70;99.90
670;DHT22;317;48.758;9.302;2022-11-15T00:17:37;8.50;99.90
670;DHT22;317;48.758;9.302;2022-11-15T00:20:05;8.70;99.90
670;DHT22;317;48.758;9.302;2022-11-15T00:22:32;8.40;99.90
670;DHT22;317;48.758;9.302;2022-11-15T00:24:59;8.60;99.90
670;DHT22;317;48.758;9.302;2022-11-15T00:27:28;8.60;99.90
670;DHT22;317;48.758;9.302;2022-11-15T00:29:54;8.20;99.90
670;DHT22;317;48.758;9.302;2022-11-15T00:32:21;8.20;99.90
670;DHT22;317;48.758;9.302;2022-11-15T00:34:48;8.20;99.90
670;DHT22;317;48.758;9.302;2022-11-15T00:37:14;8.40;99.90
670;DHT22;317;48.758;9.302;2022-11-15T00:39:41;8.70;99.90
670;DHT22;317;48.758;9.302;2022-11-15T00:42:08;8.90;99.90
670;DHT22;317;48.758;9.302;2022-11-15T00:44:36;8.40;99.90
670;DHT22;317;48.758;9.302;2022-11-15T00:47:03;8.60;99.90
670;DHT22;317;48.758;9.302;2022-11-15T00:49:29;8.40;99.90
670;DHT22;317;48.758;9.302;2022-11-15T00:51:59;8.30;99.90
670;DHT22;317;48.758;9.302;2022-11-15T00:54:25;8.30;99.90
670;DHT22;317;48.758;9.302;2022-11-15T00:56:52;7.80;99.90
670;DHT22;317;48.758;9.302;2022-11-15T00:59:19;8.50;99.90
670;DHT22;317;48.758;9.302;2022-11-15T01:01:47;8.00;99.90
670;DHT22;317;48.758;9.302;2022-11-15T01:04:14;7.90;99.90
670;DHT22;317;48.758;9.302;2022-11-15T01:06:41;8.30;99.90
670;DHT22;317;48.758;9.302;2022-11-15T01:09:07;7.80;99.90
670;DHT22;317;48.758;9.302;2022-11-15T01:11:34;7.90;99.90
670;DHT22;317;48.758;9.302;2022-11-15T01:14:02;7.60;99.90
670;DHT22;317;48.758;9.302;2022-11-15T01:16:29;8.10;99.90
670;DHT22;317;48.758;9.302;2022-11-15T01:18:58;7.80;99.90
670;DHT22;317;48.758;9.302;2022-11-15T01:21:24;7.90;99.90
670;DHT22;317;48.758;9.302;2022-11-15T01:23:53;8.00;99.90
670;DHT22;317;48.758;9.302;2022-11-15T01:26:20;7.80;99.90
670;DHT22;317;48.758;9.302;2022-11-15T01:28:47;7.40;99.90
670;DHT22;317;48.758;9.302;2022-11-15T01:31:16;7.60;99.90
670;DHT22;317;48.758;9.302;2022-11-15T01:33:45;7.80;99.90
670;DHT22;317;48.758;9.302;2022-11-15T01:36:19;7.70;99.90
670;DHT22;317;48.758;9.302;2022-11-15T01:38:53;7.70;99.90
670;DHT22;317;48.758;9.302;2022-11-15T01:41:22;7.50;99.90
670;DHT22;317;48.758;9.302;2022-11-15T01:43:51;7.20;99.90
670;DHT22;317;48.758;9.302;2022-11-15T01:46:25;7.10;99.90
670;DHT22;317;48.758;9.302;2022-11-15T01:48:54;7.40;99.90
670;DHT22;317;48.758;9.302;2022-11-15T01:51:29;7.20;99.90
670;DHT22;317;48.758;9.302;2022-11-15T01:54:01;7.20;99.90
670;DHT22;317;48.758;9.302;2022-11-15T01:56:31;6.90;99.90
670;DHT22;317;48.758;9.302;2022-11-15T01:59:03;6.90;99.90
670;DHT22;317;48.758;9.302;2022-11-15T02:01:31;6.60;99.90
670;DHT22;317;48.758;9.302;2022-11-15T02:04:00;7.30;99.90
670;DHT22;317;48.758;9.302;2022-11-15T02:06:29;7.00;99.90
670;DHT22;317;48.758;9.302;2022-11-15T02:08:56;6.80;99.90
670;DHT22;317;48.758;9.302;2022-11-15T02:11:23;7.10;99.90
670;DHT22;317;48.758;9.302;2022-11-15T02:13:50;7.30;99.90
670;DHT22;317;48.758;9.302;2022-11-15T02:16:28;6.90;99.90
670;DHT22;317;48.758;9.302;2022-11-15T02:19:05;7.10;99.90
670;DHT22;317;48.758;9.302;2022-11-15T02:21:42;7.20;99.90
670;DHT22;317;48.758;9.302;2022-11-15T02:30:23;6.80;99.90
670;DHT22;317;48.758;9.302;2022-11-15T02:32:53;7.00;99.90
670;DHT22;317;48.758;9.302;2022-11-15T02:35:29;6.80;99.90
670;DHT22;317;48.758;9.302;2022-11-15T02:37:59;7.00;99.90
670;DHT22;317;48.758;9.302;2022-11-15T02:40:37;7.10;99.90
670;DHT22;317;48.758;9.302;2022-11-15T02:43:08;6.50;99.90
670;DHT22;317;48.758;9.302;2022-11-15T02:46:00;6.90;99.90
670;DHT22;317;48.758;9.302;2022-11-15T02:48:30;6.80;99.90
670;DHT22;317;48.758;9.302;2022-11-15T02:50:59;6.80;99.90
670;DHT22;317;48.758;9.302;2022-11-15T02:53:27;6.90;99.90
670;DHT22;317;48.758;9.302;2022-11-15T02:55:55;7.00;99.90
670;DHT22;317;48.758;9.302;2022-11-15T02:58:50;7.00;99.90
670;DHT22;317;48.758;9.302;2022-11-15T03:01:33;6.80;99.90
670;DHT22;317;48.758;9.302;2022-11-15T03:04:14;6.90;99.90
670;DHT22;317;48.758;9.302;2022-11-15T03:06:48;7.00;99.90
670;DHT22;317;48.758;9.302;2022-11-15T03:09:26;6.50;99.90
670;DHT22;317;48.758;9.302;2022-11-15T03:12:07;6.70;99.90
670;DHT22;317;48.758;9.302;2022-11-15T03:14:39;6.80;99.90
670;DHT22;317;48.758;9.302;2022-11-15T03:17:14;6.40;99.90
670;DHT22;317;48.758;9.302;2022-11-15T03:19:44;7.20;99.90
670;DHT22;317;48.758;9.302;2022-11-15T03:22:13;7.00;99.90
670;DHT22;317;48.758;9.302;2022-11-15T03:24:44;6.50;99.90
670;DHT22;317;48.758;9.302;2022-11-15T03:27:13;7.00;99.90
670;DHT22;317;48.758;9.302;2022-11-15T03:29:45;7.00;99.90
670;DHT22;317;48.758;9.302;2022-11-15T03:32:16;7.00;99.90
670;DHT22;317;48.758;9.302;2022-11-15T03:34:51;6.90;99.90
670;DHT22;317;48.758;9.302;2022-11-15T03:37:22;6.70;99.90
670;DHT22;317;48.758;9.302;2022-11-15T03:39:51;6.90;99.90
670;DHT22;317;48.758;9.302;2022-11-15T03:42:22;6.90;99.90
670;DHT22;317;48.758;9.302;2022-11-15T03:44:58;6.90;99.90
670;DHT22;317;48.758;9.302;2022-11-15T03:47:34;6.70;99.90
670;DHT22;317;48.758;9.302;2022-11-15T03:50:07;6.80;99.90
670;DHT22;317;48.758;9.302;2022-11-15T03:52:34;7.10;99.90
670;DHT22;317;48.758;9.302;2022-11-15T03:55:03;7.00;99.90
670;DHT22;317;48.758;9.302;2022-11-15T03:57:30;7.10;99.90
670;DHT22;317;48.758;9.302;2022-11-15T03:59:57;7.00;99.90
670;DHT22;317;48.758;9.302;2022-11-15T04:02:24;7.00;99.90
670;DHT22;317;48.758;9.302;2022-11-15T04:04:52;7.00;99.90
670;DHT22;317;48.758;9.302;2022-11-15T04:07:19;6.50;99.90
670;DHT22;317;48.758;9.302;2022-11-15T04:09:46;6.30;99.90
670;DHT22;317;48.758;9.302;2022-11-15T04:12:33;6.80;99.90
670;DHT22;317;48.758;9.302;2022-11-15T04:15:02;6.90;99.90
670;DHT22;317;48.758;9.302;2022-11-15T04:17:37;6.90;99.90
670;DHT22;317;48.758;9.302;2022-11-15T04:20:08;6.70;99.90
670;DHT22;317;48.758;9.302;2022-11-15T04:22:53;6.50;99.90
670;DHT22;317;48.758;9.302;2022-11-15T04:25:38;6.60;99.90
670;DHT22;317;48.758;9.302;2022-11-15T04:28:05;6.70;99.90
670;DHT22;317;48.758;9.302;2022-11-15T04:30:32;6.60;99.90
670;DHT22;317;48.758;9.302;2022-11-15T04:32:59;6.40;99.90
670;DHT22;317;48.758;9.302;2022-11-15T04:35:27;6.20;99.90
670;DHT22;317;48.758;9.302;2022-11-15T04:37:54;6.80;99.90
670;DHT22;317;48.758;9.302;2022-11-15T04:40:21;6.60;99.90
670;DHT22;317;48.758;9.302;2022-11-15T04:42:48;6.60;99.90
670;DHT22;317;48.758;9.302;2022-11-15T04:45:15;6.50;99.90
670;DHT22;317;48.758;9.302;2022-11-15T04:47:43;6.60;99.90
670;DHT22;317;48.758;9.302;2022-11-15T04:50:11;6.50;99.90
670;DHT22;317;48.758;9.302;2022-11-15T04:52:40;6.60;99.90
670;DHT22;317;48.758;9.302;2022-11-15T04:55:08;6.70;99.90
670;DHT22;317;48.758;9.302;2022-11-15T04:57:35;6.70;99.90
670;DHT22;317;48.758;9.302;2022-11-15T05:00:02;6.50;99.90
670;DHT22;317;48.758;9.302;2022-11-15T05:02:31;6.10;99.90
670;DHT22;317;48.758;9.302;2022-11-15T05:05:11;6.70;99.90
670;DHT22;317;48.758;9.302;2022-11-15T05:07:40;6.50;99.90
670;DHT22;317;48.758;9.302;2022-11-15T05:10:07;6.50;99.90
670;DHT22;317;48.758;9.302;2022-11-15T05:12:34;6.40;99.90
670;DHT22;317;48.758;9.302;2022-11-15T05:15:00;6.70;99.90
670;DHT22;317;48.758;9.302;2022-11-15T05:17:27;6.50;99.90
670;DHT22;317;48.758;9.302;2022-11-15T05:19:54;6.70;99.90
670;DHT22;317;48.758;9.302;2022-11-15T05:22:21;6.70;99.90
670;DHT22;317;48.758;9.302;2022-11-15T05:24:49;6.50;99.90
670;DHT22;317;48.758;9.302;2022-11-15T05:27:16;6.50;99.90
670;DHT22;317;48.758;9.302;2022-11-15T05:29:43;6.40;99.90
670;DHT22;317;48.758;9.302;2022-11-15T05:32:12;6.50;99.90
670;DHT22;317;48.758;9.302;2022-11-15T05:34:39;6.40;99.90
670;DHT22;317;48.758;9.302;2022-11-15T05:37:06;6.60;99.90
670;DHT22;317;48.758;9.302;2022-11-15T05:39:33;6.30;99.90
670;DHT22;317;48.758;9.302;2022-11-15T05:42:04;6.20;99.90
670;DHT22;317;48.758;9.302;2022-11-15T05:44:33;6.70;99.90
670;DHT22;317;48.758;9.302;2022-11-15T05:47:01;6.60;99.90
670;DHT22;317;48.758;9.302;2022-11-15T05:49:31;6.30;99.90
670;DHT22;317;48.758;9.302;2022-11-15T05:51:58;6.00;99.90
670;DHT22;317;48.758;9.302;2022-11-15T05:54:25;6.30;99.90
670;DHT22;317;48.758;9.302;2022-11-15T05:56:52;6.40;99.90
670;DHT22;317;48.758;9.302;2022-11-15T05:59:22;6.00;99.90
670;DHT22;317;48.758;9.302;2022-11-15T06:01:49;6.30;99.90
670;DHT22;317;48.758;9.302;2022-11-15T06:04:16;6.30;99.90
670;DHT22;317;48.758;9.302;2022-11-15T06:06:43;6.30;99.90
670;DHT22;317;48.758;9.302;2022-11-15T06:09:10;5.60;99.90
670;DHT22;317;48.758;9.302;2022-11-15T06:11:36;6.00;99.90
670;DHT22;317;48.758;9.302;2022-11-15T06:14:03;5.60;99.90
670;DHT22;317;48.758;9.302;2022-11-15T06:16:32;5.90;99.90
670;DHT22;317;48.758;9.302;2022-11-15T06:18:58;5.80;99.90
670;DHT22;317;48.758;9.302;2022-11-15T06:21:25;6.20;99.90
670;DHT22;317;48.758;9.302;2022-11-15T06:23:54;5.90;99.90
670;DHT22;317;48.758;9.302;2022-11-15T06:26:21;6.00;99.90
670;DHT22;317;48.758;9.302;2022-11-15T06:28:48;6.10;99.90
670;DHT22;317;48.758;9.302;2022-11-15T06:31:14;6.10;99.90
670;DHT22;317;48.758;9.302;2022-11-15T06:33:43;5.90;99.90
670;DHT22;317;48.758;9.302;2022-11-15T06:36:12;6.10;99.90
670;DHT22;317;48.758;9.302;2022-11-15T06:38:41;5.90;99.90
670;DHT22;317;48.758;9.302;2022-11-15T06:41:10;5.90;99.90
670;DHT22;317;48.758;9.302;2022-11-15T06:43:37;5.90;99.90
670;DHT22;317;48.758;9.302;2022-11-15T06:46:05;6.00;99.90
670;DHT22;317;48.758;9.302;2022-11-15T06:48:33;6.00;99.90
670;DHT22;317;48.758;9.302;2022-11-15T06:51:03;6.10;99.90
670;DHT22;317;48.758;9.302;2022-11-15T06:53:30;6.10;99.90
670;DHT22;317;48.758;9.302;2022-11-15T06:55:59;6.10;99.90
670;DHT22;317;48.758;9.302;2022-11-15T06:58:26;6.20;99.90
670;DHT22;317;48.758;9.302;2022-11-15T07:00:59;6.30;99.90
670;DHT22;317;48.758;9.302;2022-11-15T07:03:26;6.10;99.90
670;DHT22;317;48.758;9.302;2022-11-15T07:05:55;6.40;99.90
670;DHT22;317;48.758;9.302;2022-11-15T07:08:26;6.40;99.90
670;DHT22;317;48.758;9.302;2022-11-15T07:10:53;6.40;99.90
670;DHT22;317;48.758;9.302;2022-11-15T07:13:24;6.20;99.90
670;DHT22;317;48.758;9.302;2022-11-15T07:15:51;6.40;99.90
670;DHT22;317;48.758;9.302;2022-11-15T07:18:17;6.30;99.90
670;DHT22;317;48.758;9.302;2022-11-15T07:20:44;6.30;99.90
670;DHT22;317;48.758;9.302;2022-11-15T07:23:11;6.20;99.90
670;DHT22;317;48.758;9.302;2022-11-15T07:25:39;6.10;99.90
670;DHT22;317;48.758;9.302;2022-11-15T07:28:06;6.70;99.90
670;DHT22;317;48.758;9.302;2022-11-15T07:30:33;6.60;99.90
670;DHT22;317;48.758;9.302;2022-11-15T07:33:00;6.90;99.90
670;DHT22;317;48.758;9.302;2022-11-15T07:35:28;7.00;99.90
670;DHT22;317;48.758;9.302;2022-11-15T07:37:56;7.10;99.90
670;DHT22;317;48.758;9.302;2022-11-15T07:40:24;7.20;99.90
670;DHT22;317;48.758;9.302;2022-11-15T07:42:52;7.50;99.90
670;DHT22;317;48.758;9.302;2022-11-15T07:45:19;7.10;99.90
670;DHT22;317;48.758;9.302;2022-11-15T07:47:46;7.30;99.90
670;DHT22;317;48.758;9.302;2022-11-15T07:50:13;7.40;99.90
670;DHT22;317;48.758;9.302;2022-11-15T07:52:40;8.00;99.90
670;DHT22;317;48.758;9.302;2022-11-15T07:55:08;7.80;99.90
670;DHT22;317;48.758;9.302;2022-11-15T07:57:35;8.30;99.90
670;DHT22;317;48.758;9.302;2022-11-15T08:00:05;8.70;99.90
670;DHT22;317;48.758;9.302;2022-11-15T08:02:34;8.90;99.90
670;DHT22;317;48.758;9.302;2022-11-15T08:05:01;9.30;99.90
670;DHT22;317;48.758;9.302;2022-11-15T08:07:29;9.00;99.90
670;DHT22;317;48.758;9.302;2022-11-15T08:09:56;8.90;99.90
670;DHT22;317;48.758;9.302;2022-11-15T08:12:31;9.20;99.90
670;DHT22;317;48.758;9.302;2022-11-15T08:14:58;8.90;99.90
670;DHT22;317;48.758;9.302;2022-11-15T08:17:27;9.10;99.90
670;DHT22;317;48.758;9.302;2022-11-15T08:19:57;8.70;99.90
670;DHT22;317;48.758;9.302;2022-11-15T08:22:24;9.30;99.90
670;DHT22;317;48.758;9.302;2022-11-15T08:24:51;9.40;99.90
670;DHT22;317;48.758;9.302;2022-11-15T08:27:17;9.40;99.90
670;DHT22;317;48.758;9.302;2022-11-15T08:29:45;9.40;99.90
670;DHT22;317;48.758;9.302;2022-11-15T08:32:13;9.40;99.90
670;DHT22;317;48.758;9.302;2022-11-15T08:34:41;9.60;99.90
670;DHT22;317;48.758;9.302;2022-11-15T08:37:08;9.50;99.90
670;DHT22;317;48.758;9.302;2022-11-15T08:39:35;9.60;99.90
670;DHT22;317;48.758;9.302;2022-11-15T08:42:05;9.20;99.90
670;DHT22;317;48.758;9.302;2022-11-15T08:44:31;9.20;99.90
670;DHT22;317;48.758;9.302;2022-11-15T08:46:58;9.60;99.90
670;DHT22;317;48.758;9.302;2022-11-15T08:49:26;9.60;99.90
670;DHT22;317;48.758;9.302;2022-11-15T08:51:54;10.20;99.90
670;DHT22;317;48.758;9.302;2022-11-15T08:54:22;10.20;99.90
670;DHT22;317;48.758;9.302;2022-11-15T08:56:49;10.70;99.90
670;DHT22;317;48.758;9.302;2022-11-15T08:59:16;10.70;99.90
670;DHT22;317;48.758;9.302;2022-11-15T09:01:43;10.70;99.90
670;DHT22;317;48.758;9.302;2022-11-15T09:04:11;10.40;99.90
670;DHT22;317;48.758;9.302;2022-11-15T09:06:38;11.20;99.90
670;DHT22;317;48.758;9.302;2022-11-15T09:09:08;11.40;99.90
670;DHT22;317;48.758;9.302;2022-11-15T09:11:42;11.50;99.90
670;DHT22;317;48.758;9.302;2022-11-15T09:14:12;12.10;99.90
670;DHT22;317;48.758;9.302;2022-11-15T09:16:39;12.40;96.50
670;DHT22;317;48.758;9.302;2022-11-15T09:19:06;12.50;82.60
670;DHT22;317;48.758;9.302;2022-11-15T09:21:33;12.70;57.00
670;DHT22;317;48.758;9.302;2022-11-15T09:24:00;13.10;51.00
670;DHT22;317;48.758;9.302;2022-11-15T09:26:44;13.20;1.00
670;DHT22;317;48.758;9.302;2022-11-15T09:29:32;13.50;1.00
670;DHT22;317;48.758;9.302;2022-11-15T09:32:20;12.40;53.80
670;DHT22;317;48.758;9.302;2022-11-15T09:34:48;12.10;96.00
670;DHT22;317;48.758;9.302;2022-11-15T09:37:15;11.80;14.70
670;DHT22;317;48.758;9.302;2022-11-15T09:39:42;12.50;1.00
670;DHT22;317;48.758;9.302;2022-11-15T09:42:30;12.50;22.00
670;DHT22;317;48.758;9.302;2022-11-15T09:45:10;13.60;1.00
670;DHT22;317;48.758;9.302;2022-11-15T09:47:58;14.30;1.00
670;DHT22;317;48.758;9.302;2022-11-15T09:50:34;14.40;99.90
670;DHT22;317;48.758;9.302;2022-11-15T09:53:01;14.40;99.90
670;DHT22;317;48.758;9.302;2022-11-15T09:55:34;15.40;1.00
670;DHT22;317;48.758;9.302;2022-11-15T09:58:15;15.80;12.50
670;DHT22;317;48.758;9.302;2022-11-15T10:00:47;15.90;99.90
670;DHT22;317;48.758;9.302;2022-11-15T10:03:28;16.20;99.90
670;DHT22;317;48.758;9.302;2022-11-15T10:05:59;17.00;99.90
670;DHT22;317;48.758;9.302;2022-11-15T10:08:46;17.00;99.90
670;DHT22;317;48.758;9.302;2022-11-15T10:11:20;17.00;1.00
670;DHT22;317;48.758;9.302;2022-11-15T10:13:50;18.00;1.00
670;DHT22;317;48.758;9.302;2022-11-15T10:16:41;17.70;99.90
670;DHT22;317;48.758;9.302;2022-11-15T10:19:17;16.30;1.00
670;DHT22;317;48.758;9.302;2022-11-15T10:21:57;15.90;1.00
670;DHT22;317;48.758;9.302;2022-11-15T10:24:27;15.40;99.90
670;DHT22;317;48.758;9.302;2022-11-15T10:26:54;15.90;99.90
670;DHT22;317;48.758;9.302;2022-11-15T10:29:24;16.70;99.90
670;DHT22;317;48.758;9.302;2022-11-15T10:31:51;16.60;99.90
670;DHT22;317;48.758;9.302;2022-11-15T10:34:20;16.00;99.90
670;DHT22;317;48.758;9.302;2022-11-15T10:36:54;15.90;99.90
670;DHT22;317;48.758;9.302;2022-11-15T10:39:22;15.50;99.90
670;DHT22;317;48.758;9.302;2022-11-15T10:41:55;15.50;80.00
670;DHT22;317;48.758;9.302;2022-11-15T10:44:26;15.20;99.90
670;DHT22;317;48.758;9.302;2022-11-15T10:50:06;15.00;1.00
670;DHT22;317;48.758;9.302;2022-11-15T10:52:35;14.40;1.00
670;DHT22;317;48.758;9.302;2022-11-15T10:55:17;14.50;1.00
670;DHT22;317;48.758;9.302;2022-11-15T10:57:50;13.90;99.90
670;DHT22;317;48.758;9.302;2022-11-15T11:00:30;13.60;99.90
670;DHT22;317;48.758;9.302;2022-11-15T11:03:00;13.80;99.90
670;DHT22;317;48.758;9.302;2022-11-15T11:05:29;13.90;99.90
670;DHT22;317;48.758;9.302;2022-11-15T11:07:59;13.90;99.90
670;DHT22;317;48.758;9.302;2022-11-15T11:10:27;13.90;99.90
670;DHT22;317;48.758;9.302;2022-11-15T11:12:54;13.40;1.00
670;DHT22;317;48.758;9.302;2022-11-15T11:15:23;14.00;99.90
670;DHT22;317;48.758;9.302;2022-11-15T11:18:00;13.90;1.00
670;DHT22;317;48.758;9.302;2022-11-15T11:20:32;13.80;78.70
670;DHT22;317;48.758;9.302;2022-11-15T11:23:18;13.80;1.00
670;DHT22;317;48.758;9.302;2022-11-15T11:25:50;13.80;1.00
670;DHT22;317;48.758;9.302;2022-11-15T11:28:30;13.80;32.10
670;DHT22;317;48.758;9.302;2022-11-15T11:31:18;13.90;1.00
670;DHT22;317;48.758;9.302;2022-11-15T11:33:57;14.10;1.00
670;DHT22;317;48.758;9.302;2022-11-15T11:36:32;14.10;1.00
670;DHT22;317;48.758;9.302;2022-11-15T11:39:17;14.50;1.00
670;DHT22;317;48.758;9.302;2022-11-15T11:41:58;14.50;7.40
670;DHT22;317;48.758;9.302;2022-11-15T11:44:34;14.60;1.00
670;DHT22;317;48.758;9.302;2022-11-15T11:47:09;14.50;1.00
670;DHT22;317;48.758;9.302;2022-11-15T11:49:43;14.50;99.90
670;DHT22;317;48.758;9.302;2022-11-15T11:52:14;14.60;99.90
670;DHT22;317;48.758;9.302;2022-11-15T11:54:49;14.80;1.40
670;DHT22;317;48.758;9.302;2022-11-15T11:57:27;14.90;99.90
670;DHT22;317;48.758;9.302;2022-11-15T12:00:00;15.20;99.90
670;DHT22;317;48.758;9.302;2022-11-15T12:02:33;14.40;1.00
670;DHT22;317;48.758;9.302;2022-11-15T12:08:29;14.80;1.00
670;DHT22;317;48.758;9.302;2022-11-15T12:11:04;14.80;99.90
670;DHT22;317;48.758;9.302;2022-11-15T12:13:34;15.10;1.00
670;DHT22;317;48.758;9.302;2022-11-15T12:16:06;15.00;1.00
670;DHT22;317;48.758;9.302;2022-11-15T12:18:34;15.20;1.00
670;DHT22;317;48.758;9.302;2022-11-15T12:21:05;15.40;99.90
670;DHT22;317;48.758;9.302;2022-11-15T12:23:43;15.50;99.90
670;DHT22;317;48.758;9.302;2022-11-15T12:26:17;15.40;1.00
670;DHT22;317;48.758;9.302;2022-11-15T12:28:52;15.00;1.00
670;DHT22;317;48.758;9.302;2022-11-15T12:31:26;14.90;1.00
670;DHT22;317;48.758;9.302;2022-11-15T12:34:04;14.80;99.90
670;DHT22;317;48.758;9.302;2022-11-15T12:36:58;14.60;12.30
670;DHT22;317;48.758;9.302;2022-11-15T12:42:41;14.40;1.00
670;DHT22;317;48.758;9.302;2022-11-15T12:45:24;14.30;1.00
670;DHT22;317;48.758;9.302;2022-11-15T12:47:53;14.30;5.20
670;DHT22;317;48.758;9.302;2022-11-15T12:50:53;14.20;47.90
670;DHT22;317;48.758;9.302;2022-11-15T12:53:27;14.10;99.90
670;DHT22;317;48.758;9.302;2022-11-15T12:56:17;14.30;99.90
670;DHT22;317;48.758;9.302;2022-11-15T12:58:51;14.00;99.90
670;DHT22;317;48.758;9.302;2022-11-15T13:04:30;14.20;99.90
670;DHT22;317;48.758;9.302;2022-11-15T13:07:02;14.20;1.00
670;DHT22;317;48.758;9.302;2022-11-15T13:09:54;14.20;1.00
670;DHT22;317;48.758;9.302;2022-11-15T13:12:51;14.20;1.00
670;DHT22;317;48.758;9.302;2022-11-15T13:15:51;14.00;1.00
670;DHT22;317;48.758;9.302;2022-11-15T13:18:29;14.00;1.00
670;DHT22;317;48.758;9.302;2022-11-15T13:20:57;14.00;1.00
670;DHT22;317;48.758;9.302;2022-11-15T13:23:25;14.00;1.00
670;DHT22;317;48.758;9.302;2022-11-15T13:26:10;14.10;1.00
670;DHT22;317;48.758;9.302;2022-11-15T13:28:39;14.10;1.00
670;DHT22;317;48.758;9.302;2022-11-15T13:31:27;14.30;1.00
670;DHT22;317;48.758;9.302;2022-11-15T13:33:58;14.20;99.90
670;DHT22;317;48.758;9.302;2022-11-15T13:36:30;14.10;99.90
670;DHT22;317;48.758;9.302;2022-11-15T13:39:00;14.10;1.00
670;DHT22;317;48.758;9.302;2022-11-15T13:41:29;14.10;99.90
670;DHT22;317;48.758;9.302;2022-11-15T13:43:57;13.90;1.00
670;DHT22;317;48.758;9.302;2022-11-15T13:46:26;14.10;1.00
670;DHT22;317;48.758;9.302;2022-11-15T13:48:56;13.70;1.00
670;DHT22;317;48.758;9.302;2022-11-15T13:51:30;13.70;1.00
670;DHT22;317;48.758;9.302;2022-11-15T13:54:01;13.60;1.00
670;DHT22;317;48.758;9.302;2022-11-15T13:56:31;13.60;1.00
670;DHT22;317;48.758;9.302;2022-11-15T13:59:00;13.50;1.00
670;DHT22;317;48.758;9.302;2022-11-15T14:01:31;13.50;5.90
670;DHT22;317;48.758;9.302;2022-11-15T14:03:59;13.40;1.00
670;DHT22;317;48.758;9.302;2022-11-15T14:06:28;13.50;57.70
670;DHT22;317;48.758;9.302;2022-11-15T14:09:03;13.50;16.30
670;DHT22;317;48.758;9.302;2022-11-15T14:11:30;13.50;1.00
670;DHT22;317;48.758;9.302;2022-11-15T14:14:19;13.00;1.00
670;DHT22;317;48.758;9.302;2022-11-15T14:16:49;13.50;2.60
670;DHT22;317;48.758;9.302;2022-11-15T14:19:37;13.60;1.00
670;DHT22;317;48.758;9.302;2022-11-15T14:22:12;13.30;1.00
670;DHT22;317;48.758;9.302;2022-11-15T14:24:43;13.60;1.00
670;DHT22;317;48.758;9.302;2022-11-15T14:27:19;13.60;1.00
670;DHT22;317;48.758;9.302;2022-11-15T14:29:47;13.50;1.00
670;DHT22;317;48.758;9.302;2022-11-15T14:32:16;13.50;1.00
670;DHT22;317;48.758;9.302;2022-11-15T14:34:44;13.50;78.90
670;DHT22;317;48.758;9.302;2022-11-15T14:37:22;13.50;99.90
670;DHT22;317;48.758;9.302;2022-11-15T14:39:50;13.30;99.90
670;DHT22;317;48.758;9.302;2022-11-15T14:42:18;13.50;99.90
670;DHT22;317;48.758;9.302;2022-11-15T14:44:45;13.40;99.90
670;DHT22;317;48.758;9.302;2022-11-15T14:47:12;13.30;99.90
670;DHT22;317;48.758;9.302;2022-11-15T14:49:40;12.90;99.90
670;DHT22;317;48.758;9.302;2022-11-15T14:52:29;13.10;99.90
670;DHT22;317;48.758;9.302;2022-11-15T14:54:59;12.80;99.90
670;DHT22;317;48.758;9.302;2022-11-15T14:57:27;13.00;99.90
670;DHT22;317;48.758;9.302;2022-11-15T14:59:54;12.90;99.90
670;DHT22;317;48.758;9.302;2022-11-15T15:02:22;12.90;99.90
670;DHT22;317;48.758;9.302;2022-11-15T15:04:51;12.40;99.90
670;DHT22;317;48.758;9.302;2022-11-15T15:07:18;12.80;99.90
670;DHT22;317;48.758;9.302;2022-11-15T15:09:46;12.80;99.90
670;DHT22;317;48.758;9.302;2022-11-15T15:12:17;12.70;99.90
670;DHT22;317;48.758;9.302;2022-11-15T15:14:44;12.70;99.90
670;DHT22;317;48.758;9.302;2022-11-15T15:17:12;12.20;99.90
670;DHT22;317;48.758;9.302;2022-11-15T15:19:39;12.50;99.90
670;DHT22;317;48.758;9.302;2022-11-15T15:22:12;12.50;99.90
670;DHT22;317;48.758;9.302;2022-11-15T15:24:41;12.00;99.90
670;DHT22;317;48.758;9.302;2022-11-15T15:27:08;12.40;99.90
670;DHT22;317;48.758;9.302;2022-11-15T15:29:35;12.30;99.90
670;DHT22;317;48.758;9.302;2022-11-15T15:32:02;12.20;99.90
670;DHT22;317;48.758;9.302;2022-11-15T15:34:29;12.20;99.90
670;DHT22;317;48.758;9.302;2022-11-15T15:37:22;12.20;99.90
670;DHT22;317;48.758;9.302;2022-11-15T15:39:50;12.00;99.90
670;DHT22;317;48.758;9.302;2022-11-15T15:42:17;12.00;99.90
670;DHT22;317;48.758;9.302;2022-11-15T15:44:44;12.00;99.90
670;DHT22;317;48.758;9.302;2022-11-15T15:47:15;11.90;99.90
670;DHT22;317;48.758;9.302;2022-11-15T15:49:46;12.00;99.90
670;DHT22;317;48.758;9.302;2022-11-15T15:52:15;11.90;99.90
670;DHT22;317;48.758;9.302;2022-11-15T15:54:42;11.90;99.90
670;DHT22;317;48.758;9.302;2022-11-15T15:57:12;11.80;99.90
670;DHT22;317;48.758;9.302;2022-11-15T15:59:39;11.70;99.90
670;DHT22;317;48.758;9.302;2022-11-15T16:02:11;11.70;99.90
670;DHT22;317;48.758;9.302;2022-11-15T16:04:40;11.70;99.90
670;DHT22;317;48.758;9.302;2022-11-15T16:07:15;11.60;99.90
670;DHT22;317;48.758;9.302;2022-11-15T16:09:42;11.60;99.90
670;DHT22;317;48.758;9.302;2022-11-15T16:12:28;11.60;99.90
670;DHT22;317;48.758;9.302;2022-11-15T16:14:55;11.50;99.90
670;DHT22;317;48.758;9.302;2022-11-15T16:17:24;11.50;99.90
670;DHT22;317;48.758;9.302;2022-11-15T16:19:51;11.50;99.90
670;DHT22;317;48.758;9.302;2022-11-15T16:22:20;11.40;99.90
670;DHT22;317;48.758;9.302;2022-11-15T16:24:47;11.50;99.90
670;DHT22;317;48.758;9.302;2022-11-15T16:27:15;11.30;99.90
670;DHT22;317;48.758;9.302;2022-11-15T16:29:43;11.40;99.90
670;DHT22;317;48.758;9.302;2022-11-15T16:32:11;11.40;99.90
670;DHT22;317;48.758;9.302;2022-11-15T16:34:39;11.40;99.90
670;DHT22;317;48.758;9.302;2022-11-15T16:37:11;11.40;99.90
670;DHT22;317;48.758;9.302;2022-11-15T16:39:50;11.30;99.90
670;DHT22;317;48.758;9.302;2022-11-15T16:42:17;10.90;99.90
670;DHT22;317;48.758;9.302;2022-11-15T16:44:44;11.30;99.90
670;DHT22;317;48.758;9.302;2022-11-15T16:47:16;11.30;99.90
670;DHT22;317;48.758;9.302;2022-11-15T16:49:44;11.30;99.90
670;DHT22;317;48.758;9.302;2022-11-15T16:52:12;10.90;99.90
670;DHT22;317;48.758;9.302;2022-11-15T16:54:40;11.30;99.90
670;DHT22;317;48.758;9.302;2022-11-15T16:57:09;11.30;99.90
670;DHT22;317;48.758;9.302;2022-11-15T16:59:36;11.40;99.90
670;DHT22;317;48.758;9.302;2022-11-15T17:02:09;11.00;99.90
670;DHT22;317;48.758;9.302;2022-11-15T17:04:39;11.10;99.90
670;DHT22;317;48.758;9.302;2022-11-15T17:07:07;11.30;99.90
670;DHT22;317;48.758;9.302;2022-11-15T17:09:34;11.30;99.90
670;DHT22;317;48.758;9.302;2022-11-15T17:12:01;11.30;99.90
670;DHT22;317;48.758;9.302;2022-11-15T17:14:29;11.30;99.90
670;DHT22;317;48.758;9.302;2022-11-15T17:16:56;11.30;99.90
670;DHT22;317;48.758;9.302;2022-11-15T17:19:23;11.30;99.90
670;DHT22;317;48.758;9.302;2022-11-15T17:21:49;11.00;99.90
670;DHT22;317;48.758;9.302;2022-11-15T17:24:16;11.00;99.90
670;DHT22;317;48.758;9.302;2022-11-15T17:26:45;11.30;99.90
670;DHT22;317;48.758;9.302;2022-11-15T17:29:12;11.00;99.90